createdAt,value
2019-03-29T00:03:32.163Z,27.47
2019-03-29T00:06:13.878Z,28.53
2019-03-29T00:08:58.391Z,29.13
2019-03-29T00:11:39.749Z,29.60
2019-03-29T00:17:12.671Z,30.80
2019-03-29T00:19:54.491Z,31.27
2019-03-29T00:22:35.653Z,30.80
2019-03-29T00:25:16.815Z,29.20
2019-03-29T00:27:46.766Z,31.40
2019-03-29T00:33:36.024Z,31.27
2019-03-29T00:36:17.424Z,31.37
2019-03-29T00:38:58.481Z,31.67
2019-03-29T00:41:39.975Z,31.07
2019-03-29T00:44:21.300Z,31.43
2019-03-29T00:47:03.349Z,33.00
2019-03-29T00:49:45.171Z,32.23
2019-03-29T00:52:29.911Z,32.67
2019-03-29T00:57:58.235Z,34.23
2019-03-29T01:00:39.292Z,34.13
2019-03-29T01:03:21.117Z,35.00
2019-03-29T01:06:02.273Z,38.43
2019-03-29T01:11:30.472Z,38.40
2019-03-29T01:14:21.342Z,36.07
2019-03-29T01:17:10.379Z,40.03
2019-03-29T01:19:59.384Z,40.33
2019-03-29T01:22:48.519Z,41.37
2019-03-29T01:25:37.574Z,41.03
2019-03-29T01:28:26.695Z,41.57
2019-03-29T01:31:15.481Z,42.67
2019-03-29T01:33:57.409Z,41.00
2019-03-29T01:36:39.306Z,39.17
2019-03-29T01:39:21.454Z,39.27
2019-03-29T01:42:03.637Z,40.07
2019-03-29T01:44:35.890Z,41.90
2019-03-29T01:47:24.773Z,40.07
2019-03-29T01:50:14.502Z,42.63
2019-03-29T01:53:04.248Z,42.97
2019-03-29T02:01:42.747Z,46.50
2019-03-29T02:04:31.851Z,43.40
2019-03-29T02:07:20.889Z,43.73
2019-03-29T02:10:10.579Z,44.80
2019-03-29T02:15:35.415Z,43.17
2019-03-29T02:18:24.604Z,45.97
2019-03-29T02:21:14.036Z,42.80
2019-03-29T02:23:56.976Z,44.43
2019-03-29T02:26:39.038Z,44.47
2019-03-29T02:29:20.322Z,42.23
2019-03-29T02:34:51.241Z,41.97
2019-03-29T02:40:22.624Z,43.33
2019-03-29T02:45:48.580Z,47.27
2019-03-29T02:48:30.340Z,48.03
2019-03-29T02:51:13.920Z,43.80
2019-03-29T02:53:55.428Z,51.23
2019-03-29T02:56:36.946Z,45.53
2019-03-29T02:59:18.555Z,41.17
2019-03-29T03:01:59.501Z,37.93
2019-03-29T03:04:41.415Z,37.03
2019-03-29T03:10:11.180Z,36.40
2019-03-29T03:12:52.715Z,36.87
2019-03-29T03:15:22.735Z,35.63
2019-03-29T03:21:07.110Z,33.27
2019-03-29T03:23:48.444Z,31.37
2019-03-29T03:26:29.638Z,33.50
2019-03-29T03:29:10.868Z,34.43
2019-03-29T03:31:54.805Z,34.63
2019-03-29T03:34:35.748Z,34.03
2019-03-29T03:37:17.041Z,34.60
2019-03-29T03:39:58.478Z,36.73
2019-03-29T03:42:43.602Z,35.80
2019-03-29T03:48:09.725Z,34.73
2019-03-29T03:53:42.523Z,31.87
2019-03-29T03:56:22.639Z,31.30
2019-03-29T03:59:03.917Z,32.17
2019-03-29T04:01:46.263Z,33.40
2019-03-29T04:04:27.660Z,31.77
2019-03-29T04:09:57.369Z,37.30
2019-03-29T04:12:42.060Z,37.60
2019-03-29T04:15:23.166Z,36.77
2019-03-29T04:18:06.714Z,37.27
2019-03-29T04:20:48.658Z,35.47
2019-03-29T04:23:33.775Z,36.83
2019-03-29T04:26:15.710Z,36.23
2019-03-29T04:29:04.936Z,33.97
2019-03-29T04:31:40.603Z,33.13
2019-03-29T04:34:25.334Z,33.80
2019-03-29T04:40:07.169Z,34.07
2019-03-29T04:42:42.392Z,34.80
2019-03-29T04:45:24.090Z,37.10
2019-03-29T04:48:05.163Z,37.20
2019-03-29T04:50:46.575Z,36.70
2019-03-29T04:53:28.147Z,38.67
2019-03-29T04:56:09.647Z,36.60
2019-03-29T04:58:53.847Z,34.13
2019-03-29T05:01:35.048Z,34.77
2019-03-29T05:04:16.531Z,35.00
2019-03-29T05:06:58.087Z,38.73
2019-03-29T05:09:41.738Z,37.37
2019-03-29T05:12:25.069Z,36.87
2019-03-29T05:15:11.209Z,40.63
2019-03-29T05:20:36.688Z,42.60
2019-03-29T05:26:03.364Z,40.20
2019-03-29T05:28:33.453Z,40.83
2019-03-29T05:31:22.567Z,41.30
2019-03-29T05:34:11.652Z,38.57
2019-03-29T05:37:00.773Z,42.77
2019-03-29T05:39:49.882Z,50.30
2019-03-29T05:45:33.835Z,47.97
2019-03-29T05:48:22.911Z,46.67
2019-03-29T05:54:13.805Z,48.60
2019-03-29T05:57:03.145Z,51.00
2019-03-29T05:59:52.414Z,49.23
2019-03-29T06:02:41.599Z,49.17
2019-03-29T06:11:16.239Z,48.10
2019-03-29T06:14:05.350Z,47.97
2019-03-29T06:19:34.676Z,47.57
2019-03-29T06:22:16.043Z,46.77
2019-03-29T06:24:57.211Z,49.30
2019-03-29T06:27:38.561Z,50.83
2019-03-29T06:30:20.163Z,49.73
2019-03-29T06:33:01.588Z,48.70
2019-03-29T06:35:43.111Z,49.00
2019-03-29T06:38:25.300Z,48.83
2019-03-29T06:41:07.099Z,47.43
2019-03-29T06:43:48.403Z,45.00
2019-03-29T06:46:18.586Z,49.07
2019-03-29T06:48:48.560Z,53.57
2019-03-29T06:51:37.745Z,52.83
2019-03-29T06:54:26.891Z,51.13
2019-03-29T06:57:16.076Z,49.43
2019-03-29T06:59:57.476Z,48.80
2019-03-29T07:02:42.149Z,49.40
2019-03-29T07:05:23.571Z,50.37
2019-03-29T07:07:53.662Z,50.60
2019-03-29T07:13:19.131Z,51.00
2019-03-29T07:18:45.397Z,50.97
2019-03-29T07:21:27.477Z,51.40
2019-03-29T07:23:57.573Z,52.30
2019-03-29T07:26:46.826Z,52.93
2019-03-29T07:29:35.969Z,54.27
2019-03-29T07:32:24.695Z,52.60
2019-03-29T07:35:13.589Z,55.67
2019-03-29T07:38:02.769Z,57.27
2019-03-29T07:46:42.166Z,57.83
2019-03-29T07:49:31.012Z,57.97
2019-03-29T07:52:20.159Z,55.43
2019-03-29T07:55:08.944Z,56.40
2019-03-29T07:57:58.104Z,57.13
2019-03-29T08:00:39.669Z,55.90
2019-03-29T08:03:21.611Z,56.30
2019-03-29T08:06:05.029Z,56.37
2019-03-29T08:08:49.544Z,55.87
2019-03-29T08:11:29.647Z,54.23
2019-03-29T08:14:14.714Z,54.03
2019-03-29T08:19:38.694Z,54.50
2019-03-29T08:22:20.331Z,53.93
2019-03-29T08:25:01.767Z,52.70
2019-03-29T08:27:42.034Z,53.17
2019-03-29T08:33:11.646Z,51.90
2019-03-29T08:35:52.675Z,54.63
2019-03-29T08:38:33.670Z,52.93
2019-03-29T08:44:02.271Z,53.70
2019-03-29T08:46:43.817Z,53.43
2019-03-29T08:49:25.790Z,53.20
2019-03-29T08:52:07.258Z,54.13
2019-03-29T08:54:50.997Z,51.93
2019-03-29T08:57:30.825Z,51.90
2019-03-29T09:00:15.727Z,50.77
2019-03-29T09:02:55.358Z,49.27
2019-03-29T09:08:10.565Z,48.07
2019-03-29T09:10:40.744Z,47.70
2019-03-29T09:13:30.340Z,46.40
2019-03-29T09:16:19.442Z,45.10
2019-03-29T09:19:08.615Z,45.27
2019-03-29T09:21:57.751Z,44.73
2019-03-29T09:24:46.955Z,43.47
2019-03-29T09:27:36.660Z,44.20
2019-03-29T09:30:25.809Z,41.60
2019-03-29T09:36:06.234Z,40.93
2019-03-29T09:38:55.488Z,39.93
2019-03-29T09:42:04.407Z,37.73
2019-03-29T09:53:23.657Z,30.23
2019-03-29T09:59:04.076Z,32.07
2019-03-29T10:02:11.654Z,33.33
2019-03-29T10:04:41.668Z,30.33
2019-03-29T10:07:30.567Z,28.63
2019-03-29T10:10:20.409Z,28.37
2019-03-29T10:13:09.311Z,28.77
2019-03-29T10:15:58.941Z,29.17
2019-03-29T10:21:44.811Z,29.07
2019-03-29T10:24:34.023Z,24.90
2019-03-29T10:27:23.655Z,23.37
2019-03-29T10:33:27.458Z,19.70
2019-03-29T10:36:39.094Z,18.27
2019-03-29T10:42:56.694Z,19.50
2019-03-29T10:45:39.894Z,22.30
2019-03-29T10:48:17.909Z,21.00
2019-03-29T10:53:50.826Z,20.07
2019-03-29T10:56:34.667Z,18.40
2019-03-29T10:59:26.719Z,23.23
2019-03-29T11:07:33.137Z,23.93
2019-03-29T11:13:11.851Z,23.00
2019-03-29T11:18:22.140Z,23.10
2019-03-29T11:21:03.893Z,23.43
2019-03-29T11:26:33.421Z,26.37
2019-03-29T11:29:03.621Z,24.50
2019-03-29T11:32:30.432Z,25.27
2019-03-29T11:39:00.575Z,22.97
2019-03-29T11:41:49.388Z,21.43
2019-03-29T11:44:39.048Z,21.17
2019-03-29T11:47:09.081Z,23.03
2019-03-29T11:49:58.949Z,22.03
2019-03-29T11:52:47.758Z,24.73
2019-03-29T11:58:53.022Z,21.87
2019-03-29T12:02:00.794Z,22.27
2019-03-29T12:04:50.041Z,21.50
2019-03-29T12:07:39.166Z,22.60
2019-03-29T12:10:29.288Z,19.53
2019-03-29T12:12:59.369Z,20.40
2019-03-29T12:15:48.577Z,21.30
2019-03-29T12:18:37.710Z,20.57
2019-03-29T12:21:26.907Z,22.33
2019-03-29T12:24:15.819Z,18.80
2019-03-29T12:27:04.741Z,20.73
2019-03-29T12:29:53.789Z,19.77
2019-03-29T12:32:42.918Z,20.27
2019-03-29T12:35:32.726Z,21.30
2019-03-29T12:38:21.862Z,18.53
2019-03-29T12:41:10.776Z,19.27
2019-03-29T12:43:54.636Z,19.87
2019-03-29T12:46:32.422Z,18.57
2019-03-29T12:52:13.194Z,19.23
2019-03-29T12:55:02.309Z,18.40
2019-03-29T13:00:53.491Z,18.57
2019-03-29T13:03:42.309Z,17.80
2019-03-29T13:06:31.536Z,17.10
2019-03-29T13:09:20.748Z,18.17
2019-03-29T13:12:10.462Z,19.42
2019-03-29T13:17:56.374Z,19.12
2019-03-29T13:20:45.450Z,18.12
2019-03-29T13:23:35.894Z,19.05
2019-03-29T13:26:25.557Z,20.57
2019-03-29T13:29:07.551Z,20.10
2019-03-29T13:34:45.943Z,20.00
2019-03-29T13:37:27.118Z,20.00
2019-03-29T13:40:08.959Z,18.87
2019-03-29T13:42:49.995Z,18.02
2019-03-29T13:45:31.219Z,19.23
2019-03-29T13:48:12.570Z,19.32
2019-03-29T13:50:55.221Z,19.92
2019-03-29T13:53:36.339Z,19.95
2019-03-29T13:58:58.238Z,18.37
2019-03-29T14:01:42.787Z,18.77
2019-03-29T14:04:25.039Z,18.25
2019-03-29T14:07:07.713Z,16.80
2019-03-29T14:09:49.244Z,18.07
2019-03-29T14:12:31.214Z,18.52
2019-03-29T14:15:13.215Z,19.07
2019-03-29T14:17:54.740Z,18.98
2019-03-29T14:20:36.102Z,19.82
2019-03-29T14:28:58.657Z,19.42
2019-03-29T14:34:29.206Z,17.42
2019-03-29T14:37:11.440Z,18.20
2019-03-29T14:39:52.823Z,17.82
2019-03-29T14:45:54.296Z,18.95
2019-03-29T14:48:36.079Z,16.60
2019-03-29T14:51:18.457Z,17.82
2019-03-29T14:54:00.160Z,18.30
2019-03-29T14:59:31.803Z,17.90
2019-03-29T15:02:14.351Z,17.30
2019-03-29T15:04:56.136Z,17.48
2019-03-29T15:07:36.316Z,15.55
2019-03-29T15:10:18.466Z,18.70
2019-03-29T15:12:59.881Z,16.67
2019-03-29T15:15:40.943Z,15.58
2019-03-29T15:18:22.079Z,17.20
2019-03-29T15:21:03.831Z,18.40
2019-03-29T15:23:48.931Z,16.75
2019-03-29T15:26:29.822Z,15.98
2019-03-29T15:29:10.771Z,15.65
2019-03-29T15:31:40.861Z,15.83
2019-03-29T15:34:30.440Z,15.50
2019-03-29T15:37:19.753Z,18.75
2019-03-29T15:40:08.962Z,17.62
2019-03-29T15:43:37.010Z,18.55
2019-03-29T15:46:26.094Z,16.50
2019-03-29T15:49:15.258Z,16.35
2019-03-29T15:51:45.293Z,17.45
2019-03-29T15:54:34.429Z,14.43
2019-03-29T15:57:24.359Z,17.20
2019-03-29T16:03:09.194Z,16.48
2019-03-29T16:11:22.396Z,16.50
2019-03-29T16:16:50.962Z,17.73
2019-03-29T16:22:16.330Z,18.57
2019-03-29T16:24:58.121Z,18.43
2019-03-29T16:27:40.647Z,17.97
2019-03-29T16:30:22.637Z,19.50
2019-03-29T16:33:04.544Z,18.90
2019-03-29T16:38:32.113Z,22.67
2019-03-29T16:46:54.943Z,20.33
2019-03-29T16:52:25.466Z,19.40
2019-03-29T16:55:12.972Z,19.73
2019-03-29T16:57:39.050Z,19.77
2019-03-29T17:00:28.192Z,18.97
2019-03-29T17:03:18.015Z,18.63
2019-03-29T17:06:07.418Z,18.63
2019-03-29T17:08:56.474Z,18.60
2019-03-29T17:11:46.094Z,18.33
2019-03-29T17:14:35.413Z,17.80
2019-03-29T17:20:06.506Z,16.53
2019-03-29T17:22:37.054Z,19.03
2019-03-29T17:25:26.291Z,18.03
2019-03-29T17:28:16.296Z,19.67
2019-03-29T17:34:12.238Z,17.67
2019-03-29T17:39:41.508Z,18.43
2019-03-29T17:42:23.027Z,19.17
2019-03-29T17:45:07.413Z,21.93
2019-03-29T17:47:48.890Z,19.30
2019-03-29T17:53:26.026Z,21.27
2019-03-29T17:58:58.342Z,23.13
2019-03-29T18:01:39.499Z,22.27
2019-03-29T18:18:44.363Z,21.80
2019-03-29T18:24:16.109Z,20.80
2019-03-29T18:29:42.240Z,20.40
2019-03-29T18:32:25.128Z,20.57
2019-03-29T18:35:07.614Z,21.87
2019-03-29T18:37:48.920Z,21.10
2019-03-29T18:40:29.440Z,23.97
2019-03-29T18:43:10.859Z,33.83
2019-03-29T18:48:31.189Z,41.83
2019-03-29T18:51:12.763Z,46.87
2019-03-29T18:53:54.793Z,48.80
2019-03-29T18:56:35.589Z,48.43
2019-03-29T19:02:09.093Z,51.80
2019-03-29T19:04:50.773Z,51.00
2019-03-29T19:07:32.637Z,54.27
2019-03-29T19:10:14.080Z,55.33
2019-03-29T19:12:58.616Z,54.03
2019-03-29T19:15:40.129Z,57.87
2019-03-29T19:18:24.807Z,57.23
2019-03-29T19:21:06.068Z,58.80
2019-03-29T19:23:47.381Z,57.83
2019-03-29T19:29:13.231Z,58.00
2019-03-29T19:31:56.101Z,58.20
2019-03-29T19:34:38.044Z,59.57
2019-03-29T19:37:24.012Z,59.63
2019-03-29T19:40:05.686Z,57.73
2019-03-29T19:42:47.225Z,56.50
2019-03-29T19:45:34.328Z,60.37
2019-03-29T19:48:16.062Z,59.17
2019-03-29T19:50:57.549Z,60.33
2019-03-29T19:53:40.394Z,58.70
2019-03-29T19:56:24.876Z,58.57
2019-03-29T19:59:09.305Z,59.53
2019-03-29T20:01:39.267Z,58.33
2019-03-29T20:04:28.333Z,60.20
2019-03-29T20:10:15.970Z,58.10
2019-03-29T20:13:06.098Z,60.23
2019-03-29T20:15:55.826Z,62.70
2019-03-29T20:21:52.628Z,60.87
2019-03-29T20:24:41.697Z,63.77
2019-03-29T20:27:31.351Z,63.43
2019-03-29T20:36:11.664Z,61.20
2019-03-29T20:38:53.627Z,62.47
2019-03-29T20:41:35.986Z,63.73
2019-03-29T20:44:17.583Z,63.93
2019-03-29T20:49:53.873Z,63.37
2019-03-29T20:52:36.262Z,65.77
2019-03-29T20:55:21.385Z,63.40
2019-03-29T20:58:02.316Z,65.03
2019-03-29T21:00:48.250Z,65.53
2019-03-29T21:03:29.606Z,62.37
2019-03-29T21:06:14.808Z,66.53
2019-03-29T21:09:00.250Z,65.70
2019-03-29T21:11:42.561Z,65.97
2019-03-29T21:17:10.096Z,69.90
2019-03-29T21:22:40.153Z,69.13
2019-03-29T21:28:10.874Z,63.47
2019-03-29T21:30:52.431Z,67.90
2019-03-29T21:33:33.574Z,64.53
2019-03-29T21:36:17.996Z,72.27
2019-03-29T21:39:01.807Z,66.43
2019-03-29T21:41:42.911Z,63.50
2019-03-29T21:44:25.055Z,69.30
2019-03-29T21:47:06.503Z,67.93
2019-03-29T21:49:47.999Z,64.80
2019-03-29T21:55:17.408Z,69.40
2019-03-29T21:57:47.659Z,67.17
2019-03-29T22:00:37.297Z,67.20
2019-03-29T22:03:26.504Z,64.97
2019-03-29T22:09:10.648Z,70.47
2019-03-29T22:12:00.108Z,64.93
2019-03-29T22:14:49.166Z,64.83
2019-03-29T22:17:19.135Z,66.27
2019-03-29T22:19:49.169Z,67.13
2019-03-29T22:25:35.621Z,65.43
2019-03-29T22:31:00.719Z,68.03
2019-03-29T22:33:42.572Z,66.50
2019-03-29T22:36:23.973Z,64.87
2019-03-29T22:39:05.375Z,68.40
2019-03-29T22:41:35.379Z,65.10
2019-03-29T22:44:25.582Z,70.20
2019-03-29T22:47:15.586Z,70.50
2019-03-29T22:50:05.161Z,67.00
2019-03-29T22:52:54.628Z,71.03
2019-03-29T22:58:42.591Z,70.47
2019-03-29T23:04:13.014Z,61.07
2019-03-29T23:06:54.342Z,67.37
2019-03-29T23:15:52.314Z,63.00
2019-03-29T23:18:33.338Z,63.77
2019-03-29T23:21:15.257Z,68.63
2019-03-29T23:23:56.690Z,65.63
2019-03-29T23:26:39.293Z,66.23
2019-03-29T23:29:22.067Z,66.27
2019-03-29T23:32:03.294Z,63.40
2019-03-29T23:37:33.413Z,61.27
2019-03-29T23:45:54.877Z,63.17
2019-03-29T23:48:36.209Z,65.63
2019-03-29T23:51:17.580Z,62.03
2019-03-29T23:53:59.209Z,65.10
2019-03-29T23:56:44.315Z,65.67
2019-03-29T23:59:27.214Z,60.37
